Messwerte Belo Horizonte

Temperatur

Temperatur
°C
1614841200 4.00 4.00 20
1614844800 5.00 5.00 19
1614848400 6.00 6.00
1614852000 7.00 7.00 20
1614855600 8.00 8.00 21
1614859200 9.00 9.00 24
1614862800 10.00 10.00 25
1614866400 11.00 11.00 27
1614870000 12.00 12.00 28
1614873600 13.00 13.00 29
1614877200 14.00 14.00 30
1614880800 15.00 15.00 29
1614884400 16.00 16.00 29
1614888000 17.00 17.00 29
1614891600 18.00 18.00 29
1614895200 19.00 19.00 27
1614898800 20.00 20.00
1614902400 21.00 21.00 24
1614906000 22.00 22.00 23
1614909600 23.00 23.00 21
1614913200 0.00 0.00
1614916800 1.00 1.00 21
1614920400 2.00 2.00 20
1614924000 3.00 3.00 19

Aktuellste Messwerte

Wettercharakter
Wetter: meist klar
Temperatur
19 °C
Feuchtigkeit
85 %
Wind
0 km/h, -
Luftdruck
1015 hPa
Messzeit: 5. März 2021, 3.00Datenquelle: METAR

Weitere Messstationen in der Nähe

Messstation Temperatur Entfernung
Confins 19 °C 26 km
Santa Cruz 24 °C 329 km
Rio de Janeiro 27 °C 338 km
Rio de Janeiro / Deodoro - 341 km
Campos 23 °C 344 km
Rio de Janeiro - 348 km
Guaratingueta - 350 km

Wind

Windrichtung Böen Mittelwind
° km/h km/h
1614841200 4.00 3.00 - 4.00 100° 5
1614844800 5.00 4.00 - 5.00 70° 10
1614848400 6.00 5.00 - 6.00
1614852000 7.00 6.00 - 7.00 100° 5
1614855600 8.00 7.00 - 8.00 100° 20
1614859200 9.00 8.00 - 9.00 100° 10
1614862800 10.00 9.00 - 10.00 90° 10
1614866400 11.00 10.00 - 11.00 50° 5
1614870000 12.00 11.00 - 12.00 40° 10
1614873600 13.00 12.00 - 13.00 40° 10
1614877200 14.00 13.00 - 14.00 360° 5
1614880800 15.00 14.00 - 15.00 150° 5
1614884400 16.00 15.00 - 16.00 290° 5
1614888000 17.00 16.00 - 17.00 50° 5
1614891600 18.00 17.00 - 18.00 340° 5
1614895200 19.00 18.00 - 19.00 50° 5
1614898800 20.00 19.00 - 20.00
1614902400 21.00 20.00 - 21.00 80° 5
1614906000 22.00 21.00 - 22.00 0
1614909600 23.00 22.00 - 23.00 100° 10
1614913200 0.00 23.00 - 0.00
1614916800 1.00 0.00 - 1.00 90° 5
1614920400 2.00 1.00 - 2.00 80° 5
1614924000 3.00 2.00 - 3.00 0

Ihre Wetterstation

Fehlt Ihre Wetterstation auf unserem Portal?

Schreiben Sie an network@meteonews.ch